sensor_id;sensor_type;location;lat;lon;timestamp;P1;durP1;ratioP1;P2;durP2;ratioP2
16524;SDS011;8375;33.594;-117.718;2022-07-29T00:00:21;2.38;;;1.40;;
16524;SDS011;8375;33.594;-117.718;2022-07-29T00:02:50;2.28;;;1.52;;
16524;SDS011;8375;33.594;-117.718;2022-07-29T00:05:18;5.63;;;1.60;;
16524;SDS011;8375;33.594;-117.718;2022-07-29T00:07:47;4.28;;;1.67;;
16524;SDS011;8375;33.594;-117.718;2022-07-29T00:10:17;5.72;;;1.70;;
16524;SDS011;8375;33.594;-117.718;2022-07-29T00:12:46;2.50;;;1.58;;
16524;SDS011;8375;33.594;-117.718;2022-07-29T00:15:15;6.05;;;1.60;;
16524;SDS011;8375;33.594;-117.718;2022-07-29T00:17:43;5.18;;;1.42;;
16524;SDS011;8375;33.594;-117.718;2022-07-29T00:20:12;4.32;;;1.95;;
16524;SDS011;8375;33.594;-117.718;2022-07-29T00:22:40;3.97;;;1.77;;
16524;SDS011;8375;33.594;-117.718;2022-07-29T00:25:09;2.67;;;1.95;;
16524;SDS011;8375;33.594;-117.718;2022-07-29T00:27:41;4.72;;;1.70;;
16524;SDS011;8375;33.594;-117.718;2022-07-29T00:30:11;3.92;;;1.60;;
16524;SDS011;8375;33.594;-117.718;2022-07-29T00:32:43;3.33;;;1.40;;
16524;SDS011;8375;33.594;-117.718;2022-07-29T00:35:12;6.28;;;1.63;;
16524;SDS011;8375;33.594;-117.718;2022-07-29T00:37:57;3.22;;;1.38;;
16524;SDS011;8375;33.594;-117.718;2022-07-29T00:40:26;3.60;;;1.38;;
16524;SDS011;8375;33.594;-117.718;2022-07-29T00:42:56;5.88;;;1.55;;
16524;SDS011;8375;33.594;-117.718;2022-07-29T00:45:25;2.20;;;1.25;;
16524;SDS011;8375;33.594;-117.718;2022-07-29T00:47:53;3.38;;;1.30;;
16524;SDS011;8375;33.594;-117.718;2022-07-29T00:50:22;4.25;;;1.40;;
16524;SDS011;8375;33.594;-117.718;2022-07-29T00:52:51;3.25;;;1.70;;
16524;SDS011;8375;33.594;-117.718;2022-07-29T00:55:20;3.60;;;1.38;;
16524;SDS011;8375;33.594;-117.718;2022-07-29T00:57:49;4.78;;;1.40;;
16524;SDS011;8375;33.594;-117.718;2022-07-29T01:00:21;2.53;;;1.50;;
16524;SDS011;8375;33.594;-117.718;2022-07-29T01:02:51;6.38;;;1.70;;
16524;SDS011;8375;33.594;-117.718;2022-07-29T01:05:20;3.17;;;1.42;;
16524;SDS011;8375;33.594;-117.718;2022-07-29T01:07:51;3.95;;;1.42;;
16524;SDS011;8375;33.594;-117.718;2022-07-29T01:10:21;3.70;;;1.48;;
16524;SDS011;8375;33.594;-117.718;2022-07-29T01:12:51;3.35;;;1.30;;
16524;SDS011;8375;33.594;-117.718;2022-07-29T01:15:23;4.50;;;1.52;;
16524;SDS011;8375;33.594;-117.718;2022-07-29T01:17:53;4.03;;;1.52;;
16524;SDS011;8375;33.594;-117.718;2022-07-29T01:20:31;4.28;;;1.58;;
16524;SDS011;8375;33.594;-117.718;2022-07-29T01:23:34;3.80;;;1.20;;
16524;SDS011;8375;33.594;-117.718;2022-07-29T01:26:30;3.78;;;1.63;;
16524;SDS011;8375;33.594;-117.718;2022-07-29T01:29:08;1.98;;;1.02;;
16524;SDS011;8375;33.594;-117.718;2022-07-29T01:31:46;2.25;;;1.30;;
16524;SDS011;8375;33.594;-117.718;2022-07-29T01:34:23;4.20;;;1.17;;
16524;SDS011;8375;33.594;-117.718;2022-07-29T01:36:59;2.97;;;1.40;;
16524;SDS011;8375;33.594;-117.718;2022-07-29T01:39:34;4.70;;;1.50;;
16524;SDS011;8375;33.594;-117.718;2022-07-29T01:42:06;4.78;;;1.42;;
16524;SDS011;8375;33.594;-117.718;2022-07-29T01:44:45;4.55;;;1.88;;
16524;SDS011;8375;33.594;-117.718;2022-07-29T01:47:22;5.13;;;1.75;;
16524;SDS011;8375;33.594;-117.718;2022-07-29T01:49:54;4.20;;;1.80;;
16524;SDS011;8375;33.594;-117.718;2022-07-29T01:52:26;4.43;;;1.80;;
16524;SDS011;8375;33.594;-117.718;2022-07-29T01:55:04;6.07;;;1.88;;
16524;SDS011;8375;33.594;-117.718;2022-07-29T01:57:45;4.90;;;1.80;;
16524;SDS011;8375;33.594;-117.718;2022-07-29T02:00:17;4.53;;;1.80;;
16524;SDS011;8375;33.594;-117.718;2022-07-29T02:02:47;4.95;;;1.67;;
16524;SDS011;8375;33.594;-117.718;2022-07-29T02:05:18;5.85;;;2.33;;
16524;SDS011;8375;33.594;-117.718;2022-07-29T02:07:50;5.88;;;1.83;;
16524;SDS011;8375;33.594;-117.718;2022-07-29T02:10:21;7.32;;;1.88;;
16524;SDS011;8375;33.594;-117.718;2022-07-29T02:12:52;4.40;;;1.90;;
16524;SDS011;8375;33.594;-117.718;2022-07-29T02:15:26;5.53;;;1.70;;
16524;SDS011;8375;33.594;-117.718;2022-07-29T02:17:58;7.47;;;1.85;;
16524;SDS011;8375;33.594;-117.718;2022-07-29T02:20:29;3.55;;;1.70;;
16524;SDS011;8375;33.594;-117.718;2022-07-29T02:22:59;4.63;;;2.00;;
16524;SDS011;8375;33.594;-117.718;2022-07-29T02:25:29;3.60;;;1.90;;
16524;SDS011;8375;33.594;-117.718;2022-07-29T02:27:59;6.90;;;3.00;;
16524;SDS011;8375;33.594;-117.718;2022-07-29T02:30:30;4.68;;;1.85;;
16524;SDS011;8375;33.594;-117.718;2022-07-29T02:33:00;2.55;;;1.33;;
16524;SDS011;8375;33.594;-117.718;2022-07-29T02:35:30;5.55;;;1.95;;
16524;SDS011;8375;33.594;-117.718;2022-07-29T02:37:59;4.28;;;1.80;;
16524;SDS011;8375;33.594;-117.718;2022-07-29T02:40:46;4.00;;;1.70;;
16524;SDS011;8375;33.594;-117.718;2022-07-29T02:43:15;3.27;;;1.70;;
16524;SDS011;8375;33.594;-117.718;2022-07-29T02:45:49;2.80;;;1.77;;
16524;SDS011;8375;33.594;-117.718;2022-07-29T02:48:22;3.97;;;1.97;;
16524;SDS011;8375;33.594;-117.718;2022-07-29T02:51:01;4.90;;;2.00;;
16524;SDS011;8375;33.594;-117.718;2022-07-29T02:53:36;3.23;;;1.53;;
16524;SDS011;8375;33.594;-117.718;2022-07-29T02:56:10;3.97;;;2.00;;
16524;SDS011;8375;33.594;-117.718;2022-07-29T02:58:42;7.03;;;2.03;;
16524;SDS011;8375;33.594;-117.718;2022-07-29T03:01:20;6.60;;;2.67;;
16524;SDS011;8375;33.594;-117.718;2022-07-29T03:03:51;4.87;;;2.37;;
16524;SDS011;8375;33.594;-117.718;2022-07-29T03:06:22;5.03;;;1.90;;
16524;SDS011;8375;33.594;-117.718;2022-07-29T03:08:53;5.83;;;2.37;;
16524;SDS011;8375;33.594;-117.718;2022-07-29T03:11:22;5.50;;;2.47;;
16524;SDS011;8375;33.594;-117.718;2022-07-29T03:13:52;4.50;;;1.93;;
16524;SDS011;8375;33.594;-117.718;2022-07-29T03:16:23;5.50;;;2.40;;
16524;SDS011;8375;33.594;-117.718;2022-07-29T03:18:52;3.97;;;1.83;;
16524;SDS011;8375;33.594;-117.718;2022-07-29T03:21:21;6.30;;;2.50;;
16524;SDS011;8375;33.594;-117.718;2022-07-29T03:23:50;6.17;;;2.00;;
16524;SDS011;8375;33.594;-117.718;2022-07-29T03:26:19;4.27;;;2.70;;
16524;SDS011;8375;33.594;-117.718;2022-07-29T03:28:47;7.40;;;2.30;;
16524;SDS011;8375;33.594;-117.718;2022-07-29T03:31:16;4.80;;;2.10;;
16524;SDS011;8375;33.594;-117.718;2022-07-29T03:33:46;5.90;;;2.00;;
16524;SDS011;8375;33.594;-117.718;2022-07-29T03:36:15;6.60;;;2.50;;
16524;SDS011;8375;33.594;-117.718;2022-07-29T03:38:44;2.80;;;2.20;;
16524;SDS011;8375;33.594;-117.718;2022-07-29T03:41:15;4.30;;;2.30;;
16524;SDS011;8375;33.594;-117.718;2022-07-29T03:43:45;6.93;;;2.47;;
16524;SDS011;8375;33.594;-117.718;2022-07-29T03:46:17;6.40;;;2.90;;
16524;SDS011;8375;33.594;-117.718;2022-07-29T03:48:52;6.80;;;2.40;;
16524;SDS011;8375;33.594;-117.718;2022-07-29T03:51:25;3.30;;;2.50;;
16524;SDS011;8375;33.594;-117.718;2022-07-29T03:53:55;4.67;;;2.60;;
16524;SDS011;8375;33.594;-117.718;2022-07-29T03:56:23;7.60;;;3.30;;
16524;SDS011;8375;33.594;-117.718;2022-07-29T03:58:55;4.80;;;2.63;;
16524;SDS011;8375;33.594;-117.718;2022-07-29T04:01:25;7.17;;;2.87;;
16524;SDS011;8375;33.594;-117.718;2022-07-29T04:03:56;6.17;;;2.80;;
16524;SDS011;8375;33.594;-117.718;2022-07-29T04:06:27;6.53;;;3.00;;
16524;SDS011;8375;33.594;-117.718;2022-07-29T04:09:04;6.97;;;3.00;;
16524;SDS011;8375;33.594;-117.718;2022-07-29T04:11:34;5.23;;;3.13;;
16524;SDS011;8375;33.594;-117.718;2022-07-29T04:14:03;7.03;;;3.10;;
16524;SDS011;8375;33.594;-117.718;2022-07-29T04:16:32;6.63;;;3.40;;
16524;SDS011;8375;33.594;-117.718;2022-07-29T04:19:02;6.80;;;3.33;;
16524;SDS011;8375;33.594;-117.718;2022-07-29T04:21:31;8.10;;;3.40;;
16524;SDS011;8375;33.594;-117.718;2022-07-29T04:24:05;8.97;;;3.60;;
16524;SDS011;8375;33.594;-117.718;2022-07-29T04:26:34;5.57;;;4.13;;
16524;SDS011;8375;33.594;-117.718;2022-07-29T04:29:03;4.47;;;3.23;;
16524;SDS011;8375;33.594;-117.718;2022-07-29T04:31:32;7.33;;;4.07;;
16524;SDS011;8375;33.594;-117.718;2022-07-29T04:34:03;7.90;;;3.97;;
16524;SDS011;8375;33.594;-117.718;2022-07-29T04:36:31;6.67;;;4.30;;
16524;SDS011;8375;33.594;-117.718;2022-07-29T04:39:00;9.00;;;4.63;;
16524;SDS011;8375;33.594;-117.718;2022-07-29T04:41:32;7.87;;;4.20;;
16524;SDS011;8375;33.594;-117.718;2022-07-29T04:44:03;9.10;;;3.83;;
16524;SDS011;8375;33.594;-117.718;2022-07-29T04:46:32;8.93;;;4.37;;
16524;SDS011;8375;33.594;-117.718;2022-07-29T04:49:07;7.60;;;4.23;;
16524;SDS011;8375;33.594;-117.718;2022-07-29T04:51:36;7.07;;;4.00;;
16524;SDS011;8375;33.594;-117.718;2022-07-29T04:54:05;10.87;;;4.50;;
16524;SDS011;8375;33.594;-117.718;2022-07-29T04:56:33;4.70;;;3.90;;
16524;SDS011;8375;33.594;-117.718;2022-07-29T04:59:02;8.37;;;4.20;;
16524;SDS011;8375;33.594;-117.718;2022-07-29T05:01:31;7.93;;;4.80;;
16524;SDS011;8375;33.594;-117.718;2022-07-29T05:03:59;8.53;;;4.60;;
16524;SDS011;8375;33.594;-117.718;2022-07-29T05:06:29;10.43;;;4.67;;
16524;SDS011;8375;33.594;-117.718;2022-07-29T05:08:58;14.93;;;6.00;;
16524;SDS011;8375;33.594;-117.718;2022-07-29T05:11:27;7.60;;;5.20;;
16524;SDS011;8375;33.594;-117.718;2022-07-29T05:13:55;8.30;;;4.93;;
16524;SDS011;8375;33.594;-117.718;2022-07-29T05:16:24;8.80;;;5.70;;
16524;SDS011;8375;33.594;-117.718;2022-07-29T05:18:53;6.30;;;4.87;;
16524;SDS011;8375;33.594;-117.718;2022-07-29T05:21:22;9.23;;;5.07;;
16524;SDS011;8375;33.594;-117.718;2022-07-29T05:23:52;9.87;;;5.10;;
16524;SDS011;8375;33.594;-117.718;2022-07-29T05:26:20;6.73;;;4.67;;
16524;SDS011;8375;33.594;-117.718;2022-07-29T05:28:49;7.13;;;5.00;;
16524;SDS011;8375;33.594;-117.718;2022-07-29T05:31:19;9.70;;;5.40;;
16524;SDS011;8375;33.594;-117.718;2022-07-29T05:33:48;6.97;;;4.67;;
16524;SDS011;8375;33.594;-117.718;2022-07-29T05:36:16;8.70;;;4.63;;
16524;SDS011;8375;33.594;-117.718;2022-07-29T05:38:45;8.47;;;4.60;;
16524;SDS011;8375;33.594;-117.718;2022-07-29T05:41:15;6.90;;;5.30;;
16524;SDS011;8375;33.594;-117.718;2022-07-29T05:43:44;12.40;;;5.13;;
16524;SDS011;8375;33.594;-117.718;2022-07-29T05:46:12;7.53;;;5.00;;
16524;SDS011;8375;33.594;-117.718;2022-07-29T05:48:41;9.77;;;4.60;;
16524;SDS011;8375;33.594;-117.718;2022-07-29T05:51:09;8.00;;;4.73;;
16524;SDS011;8375;33.594;-117.718;2022-07-29T05:53:38;12.13;;;4.57;;
16524;SDS011;8375;33.594;-117.718;2022-07-29T05:56:07;10.73;;;4.73;;
16524;SDS011;8375;33.594;-117.718;2022-07-29T05:58:37;8.93;;;4.63;;
16524;SDS011;8375;33.594;-117.718;2022-07-29T06:01:05;8.17;;;4.80;;
16524;SDS011;8375;33.594;-117.718;2022-07-29T06:03:34;9.43;;;5.47;;
16524;SDS011;8375;33.594;-117.718;2022-07-29T06:06:03;10.63;;;4.97;;
16524;SDS011;8375;33.594;-117.718;2022-07-29T06:08:32;16.30;;;5.47;;
16524;SDS011;8375;33.594;-117.718;2022-07-29T06:11:01;10.07;;;5.40;;
16524;SDS011;8375;33.594;-117.718;2022-07-29T06:13:31;10.43;;;5.33;;
16524;SDS011;8375;33.594;-117.718;2022-07-29T06:16:02;9.63;;;5.47;;
16524;SDS011;8375;33.594;-117.718;2022-07-29T06:18:31;12.53;;;5.20;;
16524;SDS011;8375;33.594;-117.718;2022-07-29T06:21:00;10.67;;;6.30;;
16524;SDS011;8375;33.594;-117.718;2022-07-29T06:23:29;8.70;;;5.50;;
16524;SDS011;8375;33.594;-117.718;2022-07-29T06:25:57;11.67;;;5.50;;
16524;SDS011;8375;33.594;-117.718;2022-07-29T06:28:26;13.83;;;5.37;;
16524;SDS011;8375;33.594;-117.718;2022-07-29T06:30:55;5.93;;;5.03;;
16524;SDS011;8375;33.594;-117.718;2022-07-29T06:33:25;12.43;;;5.70;;
16524;SDS011;8375;33.594;-117.718;2022-07-29T06:35:54;9.73;;;5.47;;
16524;SDS011;8375;33.594;-117.718;2022-07-29T06:38:22;9.87;;;5.87;;
16524;SDS011;8375;33.594;-117.718;2022-07-29T06:40:51;9.30;;;4.93;;
16524;SDS011;8375;33.594;-117.718;2022-07-29T06:43:30;8.20;;;5.23;;
16524;SDS011;8375;33.594;-117.718;2022-07-29T06:46:00;8.50;;;6.00;;
16524;SDS011;8375;33.594;-117.718;2022-07-29T06:48:31;11.53;;;5.50;;
16524;SDS011;8375;33.594;-117.718;2022-07-29T06:51:00;8.80;;;5.70;;
16524;SDS011;8375;33.594;-117.718;2022-07-29T06:53:29;11.63;;;5.47;;
16524;SDS011;8375;33.594;-117.718;2022-07-29T06:55:58;10.10;;;5.73;;
16524;SDS011;8375;33.594;-117.718;2022-07-29T06:58:28;15.67;;;6.07;;
16524;SDS011;8375;33.594;-117.718;2022-07-29T07:00:57;10.83;;;5.70;;
16524;SDS011;8375;33.594;-117.718;2022-07-29T07:03:28;10.13;;;5.77;;
16524;SDS011;8375;33.594;-117.718;2022-07-29T07:05:58;8.33;;;5.30;;
16524;SDS011;8375;33.594;-117.718;2022-07-29T07:08:27;13.07;;;5.53;;
16524;SDS011;8375;33.594;-117.718;2022-07-29T07:10:56;7.63;;;4.67;;
16524;SDS011;8375;33.594;-117.718;2022-07-29T07:13:25;12.37;;;5.47;;
16524;SDS011;8375;33.594;-117.718;2022-07-29T07:15:53;8.47;;;5.03;;
16524;SDS011;8375;33.594;-117.718;2022-07-29T07:18:22;8.13;;;5.33;;
16524;SDS011;8375;33.594;-117.718;2022-07-29T07:20:52;15.83;;;5.67;;
16524;SDS011;8375;33.594;-117.718;2022-07-29T07:23:21;8.60;;;6.10;;
16524;SDS011;8375;33.594;-117.718;2022-07-29T07:25:50;8.97;;;6.00;;
16524;SDS011;8375;33.594;-117.718;2022-07-29T07:28:19;9.90;;;5.50;;
16524;SDS011;8375;33.594;-117.718;2022-07-29T07:30:48;9.87;;;5.13;;
16524;SDS011;8375;33.594;-117.718;2022-07-29T07:33:16;9.27;;;4.97;;
16524;SDS011;8375;33.594;-117.718;2022-07-29T07:35:45;11.47;;;5.97;;
16524;SDS011;8375;33.594;-117.718;2022-07-29T07:38:15;10.43;;;5.23;;
16524;SDS011;8375;33.594;-117.718;2022-07-29T07:40:44;10.63;;;5.90;;
16524;SDS011;8375;33.594;-117.718;2022-07-29T07:43:13;13.43;;;6.20;;
16524;SDS011;8375;33.594;-117.718;2022-07-29T07:45:41;13.10;;;5.83;;
16524;SDS011;8375;33.594;-117.718;2022-07-29T07:48:10;12.00;;;6.30;;
16524;SDS011;8375;33.594;-117.718;2022-07-29T07:50:39;10.57;;;6.27;;
16524;SDS011;8375;33.594;-117.718;2022-07-29T07:53:07;11.50;;;5.80;;
16524;SDS011;8375;33.594;-117.718;2022-07-29T07:55:41;6.80;;;5.17;;
16524;SDS011;8375;33.594;-117.718;2022-07-29T07:58:10;7.53;;;5.50;;
16524;SDS011;8375;33.594;-117.718;2022-07-29T08:00:38;8.20;;;5.70;;
16524;SDS011;8375;33.594;-117.718;2022-07-29T08:03:07;8.57;;;5.47;;
16524;SDS011;8375;33.594;-117.718;2022-07-29T08:05:38;9.07;;;5.57;;
16524;SDS011;8375;33.594;-117.718;2022-07-29T08:08:06;9.50;;;6.43;;
16524;SDS011;8375;33.594;-117.718;2022-07-29T08:10:35;10.40;;;5.67;;
16524;SDS011;8375;33.594;-117.718;2022-07-29T08:13:21;10.77;;;6.27;;
16524;SDS011;8375;33.594;-117.718;2022-07-29T08:15:50;11.33;;;5.37;;
16524;SDS011;8375;33.594;-117.718;2022-07-29T08:18:25;10.10;;;5.30;;
16524;SDS011;8375;33.594;-117.718;2022-07-29T08:20:54;11.70;;;6.57;;
16524;SDS011;8375;33.594;-117.718;2022-07-29T08:23:23;11.17;;;6.30;;
16524;SDS011;8375;33.594;-117.718;2022-07-29T08:25:52;10.07;;;6.03;;
16524;SDS011;8375;33.594;-117.718;2022-07-29T08:28:22;9.77;;;6.60;;
16524;SDS011;8375;33.594;-117.718;2022-07-29T08:30:51;10.63;;;5.87;;
16524;SDS011;8375;33.594;-117.718;2022-07-29T08:33:19;11.50;;;6.73;;
16524;SDS011;8375;33.594;-117.718;2022-07-29T08:35:48;6.73;;;5.93;;
16524;SDS011;8375;33.594;-117.718;2022-07-29T08:38:17;10.13;;;6.10;;
16524;SDS011;8375;33.594;-117.718;2022-07-29T08:40:45;8.70;;;5.23;;
16524;SDS011;8375;33.594;-117.718;2022-07-29T08:43:14;7.50;;;6.00;;
16524;SDS011;8375;33.594;-117.718;2022-07-29T08:45:45;9.07;;;6.30;;
16524;SDS011;8375;33.594;-117.718;2022-07-29T08:48:14;11.27;;;5.97;;
16524;SDS011;8375;33.594;-117.718;2022-07-29T08:50:43;9.97;;;5.57;;
16524;SDS011;8375;33.594;-117.718;2022-07-29T08:53:14;11.53;;;5.80;;
16524;SDS011;8375;33.594;-117.718;2022-07-29T08:55:45;8.23;;;5.80;;
16524;SDS011;8375;33.594;-117.718;2022-07-29T08:58:16;8.47;;;6.40;;
16524;SDS011;8375;33.594;-117.718;2022-07-29T09:00:48;7.93;;;6.50;;
16524;SDS011;8375;33.594;-117.718;2022-07-29T09:03:20;9.60;;;5.97;;
16524;SDS011;8375;33.594;-117.718;2022-07-29T09:05:51;7.70;;;5.80;;
16524;SDS011;8375;33.594;-117.718;2022-07-29T09:08:20;10.00;;;6.17;;
16524;SDS011;8375;33.594;-117.718;2022-07-29T09:10:49;13.37;;;6.33;;
16524;SDS011;8375;33.594;-117.718;2022-07-29T09:13:19;9.07;;;5.73;;
16524;SDS011;8375;33.594;-117.718;2022-07-29T09:15:49;9.20;;;5.97;;
16524;SDS011;8375;33.594;-117.718;2022-07-29T09:18:32;9.17;;;6.30;;
16524;SDS011;8375;33.594;-117.718;2022-07-29T09:21:02;9.47;;;6.40;;
16524;SDS011;8375;33.594;-117.718;2022-07-29T09:24:04;6.67;;;5.70;;
16524;SDS011;8375;33.594;-117.718;2022-07-29T09:26:34;9.03;;;5.80;;
16524;SDS011;8375;33.594;-117.718;2022-07-29T09:29:07;7.60;;;5.40;;
16524;SDS011;8375;33.594;-117.718;2022-07-29T09:31:39;12.20;;;5.80;;
16524;SDS011;8375;33.594;-117.718;2022-07-29T09:34:09;8.47;;;5.27;;
16524;SDS011;8375;33.594;-117.718;2022-07-29T09:36:39;8.90;;;5.40;;
16524;SDS011;8375;33.594;-117.718;2022-07-29T09:39:08;10.07;;;6.07;;
16524;SDS011;8375;33.594;-117.718;2022-07-29T09:41:46;7.40;;;5.40;;
16524;SDS011;8375;33.594;-117.718;2022-07-29T09:44:18;8.97;;;5.50;;
16524;SDS011;8375;33.594;-117.718;2022-07-29T09:46:54;7.70;;;5.43;;
16524;SDS011;8375;33.594;-117.718;2022-07-29T09:49:31;10.47;;;6.20;;
16524;SDS011;8375;33.594;-117.718;2022-07-29T09:52:01;9.07;;;5.37;;
16524;SDS011;8375;33.594;-117.718;2022-07-29T09:54:32;9.30;;;5.67;;
16524;SDS011;8375;33.594;-117.718;2022-07-29T09:57:04;9.17;;;5.67;;
16524;SDS011;8375;33.594;-117.718;2022-07-29T09:59:35;9.73;;;5.90;;
16524;SDS011;8375;33.594;-117.718;2022-07-29T10:02:12;12.00;;;5.87;;
16524;SDS011;8375;33.594;-117.718;2022-07-29T10:04:43;11.43;;;6.27;;
16524;SDS011;8375;33.594;-117.718;2022-07-29T10:07:11;6.83;;;5.57;;
16524;SDS011;8375;33.594;-117.718;2022-07-29T10:09:40;11.23;;;5.83;;
16524;SDS011;8375;33.594;-117.718;2022-07-29T10:12:19;8.10;;;5.93;;
16524;SDS011;8375;33.594;-117.718;2022-07-29T10:14:48;8.90;;;6.50;;
16524;SDS011;8375;33.594;-117.718;2022-07-29T10:17:19;8.97;;;6.60;;
16524;SDS011;8375;33.594;-117.718;2022-07-29T10:19:49;10.80;;;6.70;;
16524;SDS011;8375;33.594;-117.718;2022-07-29T10:22:17;8.13;;;5.73;;
16524;SDS011;8375;33.594;-117.718;2022-07-29T10:24:47;7.90;;;6.07;;
16524;SDS011;8375;33.594;-117.718;2022-07-29T10:27:16;10.40;;;6.17;;
16524;SDS011;8375;33.594;-117.718;2022-07-29T10:29:44;9.73;;;6.47;;
16524;SDS011;8375;33.594;-117.718;2022-07-29T10:35:16;10.43;;;5.97;;
16524;SDS011;8375;33.594;-117.718;2022-07-29T10:38:04;10.57;;;6.37;;
16524;SDS011;8375;33.594;-117.718;2022-07-29T10:40:50;10.70;;;6.77;;
16524;SDS011;8375;33.594;-117.718;2022-07-29T10:43:42;12.47;;;6.70;;
16524;SDS011;8375;33.594;-117.718;2022-07-29T10:46:13;10.73;;;6.43;;
16524;SDS011;8375;33.594;-117.718;2022-07-29T10:54:41;10.63;;;6.67;;
16524;SDS011;8375;33.594;-117.718;2022-07-29T10:57:19;11.73;;;7.00;;
16524;SDS011;8375;33.594;-117.718;2022-07-29T10:59:52;8.00;;;6.90;;
16524;SDS011;8375;33.594;-117.718;2022-07-29T11:02:56;10.93;;;7.50;;
16524;SDS011;8375;33.594;-117.718;2022-07-29T11:05:27;12.67;;;7.07;;
16524;SDS011;8375;33.594;-117.718;2022-07-29T11:10:53;13.77;;;7.17;;
16524;SDS011;8375;33.594;-117.718;2022-07-29T11:14:06;12.90;;;7.07;;
16524;SDS011;8375;33.594;-117.718;2022-07-29T11:19:28;10.40;;;7.40;;
16524;SDS011;8375;33.594;-117.718;2022-07-29T11:21:59;11.23;;;7.20;;
16524;SDS011;8375;33.594;-117.718;2022-07-29T11:24:29;11.77;;;7.73;;
16524;SDS011;8375;33.594;-117.718;2022-07-29T11:27:07;10.17;;;7.43;;
16524;SDS011;8375;33.594;-117.718;2022-07-29T11:29:47;10.70;;;7.23;;
16524;SDS011;8375;33.594;-117.718;2022-07-29T11:32:17;9.20;;;7.50;;
16524;SDS011;8375;33.594;-117.718;2022-07-29T11:34:47;11.60;;;7.80;;
16524;SDS011;8375;33.594;-117.718;2022-07-29T11:37:18;10.67;;;8.30;;
16524;SDS011;8375;33.594;-117.718;2022-07-29T11:42:37;11.77;;;7.70;;
16524;SDS011;8375;33.594;-117.718;2022-07-29T11:45:10;11.87;;;7.57;;
16524;SDS011;8375;33.594;-117.718;2022-07-29T11:47:41;9.93;;;7.60;;
16524;SDS011;8375;33.594;-117.718;2022-07-29T11:50:15;8.30;;;7.30;;
16524;SDS011;8375;33.594;-117.718;2022-07-29T11:52:47;15.07;;;7.17;;
16524;SDS011;8375;33.594;-117.718;2022-07-29T11:55:16;9.20;;;7.43;;
16524;SDS011;8375;33.594;-117.718;2022-07-29T11:57:46;9.77;;;7.17;;
16524;SDS011;8375;33.594;-117.718;2022-07-29T12:00:23;11.93;;;7.60;;
16524;SDS011;8375;33.594;-117.718;2022-07-29T12:03:10;9.97;;;7.83;;
16524;SDS011;8375;33.594;-117.718;2022-07-29T12:05:39;14.73;;;7.90;;
16524;SDS011;8375;33.594;-117.718;2022-07-29T12:08:15;9.50;;;7.40;;
16524;SDS011;8375;33.594;-117.718;2022-07-29T12:10:45;9.87;;;8.03;;
16524;SDS011;8375;33.594;-117.718;2022-07-29T12:13:15;13.33;;;7.57;;
16524;SDS011;8375;33.594;-117.718;2022-07-29T12:15:51;10.17;;;7.07;;
16524;SDS011;8375;33.594;-117.718;2022-07-29T12:18:20;9.13;;;7.03;;
16524;SDS011;8375;33.594;-117.718;2022-07-29T12:20:49;12.60;;;8.17;;
16524;SDS011;8375;33.594;-117.718;2022-07-29T12:23:26;10.60;;;7.53;;
16524;SDS011;8375;33.594;-117.718;2022-07-29T12:25:55;10.67;;;7.33;;
16524;SDS011;8375;33.594;-117.718;2022-07-29T12:28:26;9.80;;;7.40;;
16524;SDS011;8375;33.594;-117.718;2022-07-29T12:30:55;11.33;;;7.33;;
16524;SDS011;8375;33.594;-117.718;2022-07-29T12:33:25;10.70;;;7.27;;
16524;SDS011;8375;33.594;-117.718;2022-07-29T12:35:56;10.77;;;8.30;;
16524;SDS011;8375;33.594;-117.718;2022-07-29T12:38:28;12.33;;;7.63;;
16524;SDS011;8375;33.594;-117.718;2022-07-29T12:40:57;10.23;;;7.87;;
16524;SDS011;8375;33.594;-117.718;2022-07-29T12:43:26;10.80;;;8.07;;
16524;SDS011;8375;33.594;-117.718;2022-07-29T12:45:55;14.73;;;8.30;;
16524;SDS011;8375;33.594;-117.718;2022-07-29T12:48:33;10.37;;;7.67;;
16524;SDS011;8375;33.594;-117.718;2022-07-29T12:51:03;15.00;;;7.53;;
16524;SDS011;8375;33.594;-117.718;2022-07-29T12:53:35;10.20;;;7.97;;
16524;SDS011;8375;33.594;-117.718;2022-07-29T12:56:04;11.80;;;7.30;;
16524;SDS011;8375;33.594;-117.718;2022-07-29T12:58:33;12.77;;;8.67;;
16524;SDS011;8375;33.594;-117.718;2022-07-29T13:01:04;10.77;;;7.43;;
16524;SDS011;8375;33.594;-117.718;2022-07-29T13:03:44;11.37;;;7.37;;
16524;SDS011;8375;33.594;-117.718;2022-07-29T13:06:31;9.83;;;7.30;;
16524;SDS011;8375;33.594;-117.718;2022-07-29T13:09:03;8.83;;;7.07;;
16524;SDS011;8375;33.594;-117.718;2022-07-29T13:11:34;8.87;;;7.27;;
16524;SDS011;8375;33.594;-117.718;2022-07-29T13:14:06;9.43;;;7.37;;
16524;SDS011;8375;33.594;-117.718;2022-07-29T13:16:36;8.47;;;6.97;;
16524;SDS011;8375;33.594;-117.718;2022-07-29T13:19:32;13.63;;;8.43;;
16524;SDS011;8375;33.594;-117.718;2022-07-29T13:22:02;8.83;;;6.73;;
16524;SDS011;8375;33.594;-117.718;2022-07-29T13:24:33;9.73;;;7.70;;
16524;SDS011;8375;33.594;-117.718;2022-07-29T13:27:13;9.10;;;7.60;;
16524;SDS011;8375;33.594;-117.718;2022-07-29T13:29:42;8.50;;;7.07;;
16524;SDS011;8375;33.594;-117.718;2022-07-29T13:32:12;9.00;;;7.77;;
16524;SDS011;8375;33.594;-117.718;2022-07-29T13:34:40;10.33;;;7.67;;
16524;SDS011;8375;33.594;-117.718;2022-07-29T13:37:09;10.97;;;8.47;;
16524;SDS011;8375;33.594;-117.718;2022-07-29T13:39:39;9.57;;;7.50;;
16524;SDS011;8375;33.594;-117.718;2022-07-29T13:42:08;11.13;;;7.67;;
16524;SDS011;8375;33.594;-117.718;2022-07-29T13:44:39;11.50;;;8.40;;
16524;SDS011;8375;33.594;-117.718;2022-07-29T13:47:08;11.60;;;8.27;;
16524;SDS011;8375;33.594;-117.718;2022-07-29T13:49:36;9.30;;;7.90;;
16524;SDS011;8375;33.594;-117.718;2022-07-29T13:52:05;7.87;;;7.03;;
16524;SDS011;8375;33.594;-117.718;2022-07-29T13:54:34;11.47;;;7.87;;
16524;SDS011;8375;33.594;-117.718;2022-07-29T13:57:05;11.20;;;8.53;;
16524;SDS011;8375;33.594;-117.718;2022-07-29T13:59:34;11.00;;;9.03;;
16524;SDS011;8375;33.594;-117.718;2022-07-29T14:02:03;12.47;;;8.27;;
16524;SDS011;8375;33.594;-117.718;2022-07-29T14:04:31;8.83;;;7.93;;
16524;SDS011;8375;33.594;-117.718;2022-07-29T14:07:00;12.17;;;8.50;;
16524;SDS011;8375;33.594;-117.718;2022-07-29T14:09:29;11.20;;;8.73;;
16524;SDS011;8375;33.594;-117.718;2022-07-29T14:11:58;14.83;;;9.20;;
16524;SDS011;8375;33.594;-117.718;2022-07-29T14:14:29;10.03;;;8.53;;
16524;SDS011;8375;33.594;-117.718;2022-07-29T14:16:58;8.80;;;7.83;;
16524;SDS011;8375;33.594;-117.718;2022-07-29T14:19:28;12.60;;;8.33;;
16524;SDS011;8375;33.594;-117.718;2022-07-29T14:22:01;13.53;;;9.17;;
16524;SDS011;8375;33.594;-117.718;2022-07-29T14:24:30;12.83;;;9.13;;
16524;SDS011;8375;33.594;-117.718;2022-07-29T14:26:59;12.77;;;8.60;;
16524;SDS011;8375;33.594;-117.718;2022-07-29T14:29:29;10.53;;;9.33;;
16524;SDS011;8375;33.594;-117.718;2022-07-29T14:31:58;11.20;;;8.37;;
16524;SDS011;8375;33.594;-117.718;2022-07-29T14:34:26;12.70;;;8.97;;
16524;SDS011;8375;33.594;-117.718;2022-07-29T14:36:55;12.17;;;9.30;;
16524;SDS011;8375;33.594;-117.718;2022-07-29T14:39:23;9.60;;;8.67;;
16524;SDS011;8375;33.594;-117.718;2022-07-29T14:41:52;12.30;;;8.60;;
16524;SDS011;8375;33.594;-117.718;2022-07-29T14:44:20;10.30;;;8.50;;
16524;SDS011;8375;33.594;-117.718;2022-07-29T14:46:51;13.93;;;9.03;;
16524;SDS011;8375;33.594;-117.718;2022-07-29T14:49:20;11.00;;;8.97;;
16524;SDS011;8375;33.594;-117.718;2022-07-29T14:51:48;11.10;;;9.07;;
16524;SDS011;8375;33.594;-117.718;2022-07-29T14:54:17;13.07;;;9.77;;
16524;SDS011;8375;33.594;-117.718;2022-07-29T14:56:46;12.67;;;10.27;;